createdAt,value
2019-01-06T00:11:01.416Z,92.64
2019-01-06T00:26:12.923Z,92.45
2019-01-06T00:41:21.037Z,91.10
2019-01-06T01:12:13.030Z,90.16
2019-01-06T01:27:23.428Z,91.79
2019-01-06T01:42:30.018Z,91.14
2019-01-06T02:13:12.808Z,89.45
2019-01-06T02:28:27.493Z,90.19
2019-01-06T02:43:45.155Z,91.63
2019-01-06T02:58:52.506Z,92.32
2019-01-06T03:13:58.183Z,92.95
2019-01-06T03:44:42.115Z,92.70
2019-01-06T03:59:48.541Z,93.92
2019-01-06T04:14:53.624Z,93.76
2019-01-06T04:30:11.946Z,93.96
2019-01-06T04:45:21.128Z,93.04
2019-01-06T05:00:29.755Z,93.52
2019-01-06T05:15:36.029Z,93.65
2019-01-06T05:46:18.258Z,96.69
2019-01-06T06:01:27.325Z,100.00
2019-01-06T07:03:33.688Z,100.00
2019-01-06T07:18:39.016Z,98.67
2019-01-06T07:33:48.086Z,92.51
2019-01-06T07:48:58.566Z,79.88
2019-01-06T08:35:30.188Z,89.14
2019-01-06T08:50:40.743Z,88.35
2019-01-06T09:05:54.993Z,85.46
2019-01-06T09:21:04.106Z,85.54
2019-01-06T09:51:54.155Z,86.67
2019-01-06T10:07:04.334Z,89.27
2019-01-06T10:22:18.888Z,88.38
2019-01-06T10:37:27.020Z,86.24
2019-01-06T10:52:35.424Z,86.99
2019-01-06T11:07:45.996Z,83.99
2019-01-06T11:23:02.542Z,81.40
2019-01-06T11:53:48.332Z,80.01
2019-01-06T12:09:24.222Z,80.31
2019-01-06T12:25:03.235Z,75.85
2019-01-06T12:56:48.401Z,79.20
2019-01-06T13:12:27.804Z,79.44
2019-01-06T13:28:16.813Z,76.98
2019-01-06T13:44:11.254Z,78.88
2019-01-06T13:59:56.592Z,79.01
2019-01-06T14:15:38.185Z,76.61
2019-01-06T14:31:31.499Z,78.68
2019-01-06T15:03:17.095Z,78.12
2019-01-06T15:18:57.053Z,79.08
2019-01-06T15:34:43.270Z,81.44
2019-01-06T16:06:38.538Z,82.68
2019-01-06T16:54:37.303Z,84.23
2019-01-06T17:09:50.522Z,84.71
2019-01-06T17:40:32.912Z,85.50
2019-01-06T17:55:43.070Z,85.55
2019-01-06T18:26:26.837Z,83.97
2019-01-06T18:41:40.164Z,82.04
2019-01-06T18:56:50.524Z,83.44
2019-01-06T19:11:58.266Z,83.99
2019-01-06T19:42:53.740Z,84.04
2019-01-06T19:58:01.191Z,82.49
2019-01-06T20:28:46.519Z,81.43
2019-01-06T20:43:55.036Z,81.51
2019-01-06T20:59:05.979Z,81.32
2019-01-06T21:14:14.582Z,81.05
2019-01-06T21:29:23.625Z,82.01
2019-01-06T22:00:02.377Z,80.83
2019-01-06T22:30:43.042Z,79.39
2019-01-06T23:16:53.071Z,81.02
2019-01-06T23:32:00.860Z,81.29
2019-01-06T23:47:09.538Z,82.00
